createdAt,value
2019-03-22T00:01:00.086Z,10.10
2019-03-22T00:03:26.156Z,10.00
2019-03-22T00:05:52.209Z,10.00
2019-03-22T00:08:18.256Z,10.00
2019-03-22T00:10:44.343Z,10.00
2019-03-22T00:13:10.404Z,10.00
2019-03-22T00:15:36.668Z,10.00
2019-03-22T00:18:02.725Z,10.00
2019-03-22T00:20:28.807Z,10.00
2019-03-22T00:22:54.857Z,10.00
2019-03-22T00:25:20.963Z,10.00
2019-03-22T00:27:47.024Z,10.00
2019-03-22T00:30:13.276Z,10.00
2019-03-22T00:32:39.344Z,10.00
2019-03-22T00:35:06.463Z,10.00
2019-03-22T00:37:32.654Z,10.00
2019-03-22T00:39:58.799Z,10.00
2019-03-22T00:42:24.863Z,10.00
2019-03-22T00:44:50.912Z,10.00
2019-03-22T00:47:16.999Z,10.00
2019-03-22T00:49:43.064Z,10.00
2019-03-22T00:52:09.119Z,10.00
2019-03-22T00:54:35.174Z,10.00
2019-03-22T00:57:01.331Z,10.00
2019-03-22T00:59:27.420Z,10.00
2019-03-22T01:01:53.570Z,10.00
2019-03-22T01:04:19.728Z,10.00
2019-03-22T01:06:45.774Z,10.00
2019-03-22T01:09:11.895Z,10.00
2019-03-22T01:11:37.951Z,10.00
2019-03-22T01:14:04.019Z,10.00
2019-03-22T01:16:30.085Z,10.00
2019-03-22T01:18:56.155Z,9.90
2019-03-22T01:21:22.298Z,10.00
2019-03-22T01:23:48.383Z,10.00
2019-03-22T01:26:14.464Z,10.00
2019-03-22T01:28:40.512Z,10.00
2019-03-22T01:31:06.564Z,10.00
2019-03-22T01:33:32.643Z,10.00
2019-03-22T01:35:59.000Z,10.00
2019-03-22T01:38:25.074Z,10.00
2019-03-22T01:40:51.154Z,10.00
2019-03-22T01:43:17.344Z,9.90
2019-03-22T01:45:43.428Z,9.90
2019-03-22T01:48:09.599Z,9.90
2019-03-22T01:50:35.647Z,9.90
2019-03-22T01:53:01.834Z,9.80
2019-03-22T01:55:27.900Z,10.30
2019-03-22T01:57:54.208Z,9.80
2019-03-22T02:00:20.631Z,9.80
2019-03-22T02:02:46.687Z,9.80
2019-03-22T02:05:13.295Z,9.80
2019-03-22T02:07:39.344Z,9.80
2019-03-22T02:10:07.995Z,9.80
2019-03-22T02:12:34.056Z,9.80
2019-03-22T02:15:00.278Z,9.80
2019-03-22T02:17:26.613Z,9.80
2019-03-22T02:19:52.663Z,9.80
2019-03-22T02:22:18.727Z,9.80
2019-03-22T02:24:44.789Z,9.80
2019-03-22T02:27:10.837Z,9.80
2019-03-22T02:29:36.991Z,9.80
2019-03-22T02:32:03.060Z,9.80
2019-03-22T02:34:29.225Z,9.70
2019-03-22T02:36:55.416Z,9.80
2019-03-22T02:39:21.606Z,9.80
2019-03-22T02:41:47.838Z,9.70
2019-03-22T02:44:14.036Z,9.70
2019-03-22T02:46:40.085Z,9.80
2019-03-22T02:49:06.137Z,9.80
2019-03-22T02:51:32.189Z,9.80
2019-03-22T02:53:58.252Z,9.80
2019-03-22T02:56:24.313Z,9.80
2019-03-22T02:58:50.499Z,9.80
2019-03-22T03:01:16.568Z,9.80
2019-03-22T03:03:42.623Z,9.80
2019-03-22T03:06:08.689Z,9.80
2019-03-22T03:08:34.869Z,9.80
2019-03-22T03:11:01.032Z,9.80
2019-03-22T03:13:27.089Z,9.80
2019-03-22T03:15:53.187Z,9.80
2019-03-22T03:18:19.336Z,9.80
2019-03-22T03:20:45.424Z,9.80
2019-03-22T03:23:11.495Z,9.80
2019-03-22T03:25:37.579Z,9.80
2019-03-22T03:28:03.631Z,9.80
2019-03-22T03:30:29.688Z,9.80
2019-03-22T03:32:55.759Z,9.80
2019-03-22T03:35:21.918Z,9.80
2019-03-22T03:37:48.088Z,9.80
2019-03-22T03:40:14.456Z,9.80
2019-03-22T03:42:40.506Z,9.80
2019-03-22T03:45:36.508Z,9.80
2019-03-22T03:48:07.654Z,9.80
2019-03-22T03:50:33.723Z,9.80
2019-03-22T03:53:00.006Z,9.80
2019-03-22T03:55:27.068Z,9.80
2019-03-22T03:57:53.220Z,9.80
2019-03-22T04:00:19.301Z,9.90
2019-03-22T04:02:45.450Z,9.80
2019-03-22T04:05:14.409Z,9.70
2019-03-22T04:07:39.738Z,9.80
2019-03-22T04:10:07.113Z,9.70
2019-03-22T04:12:33.247Z,9.70
2019-03-22T04:14:59.335Z,9.80
2019-03-22T04:17:25.498Z,9.70
2019-03-22T04:19:51.551Z,9.80
2019-03-22T04:22:17.630Z,9.80
2019-03-22T04:24:43.795Z,9.80
2019-03-22T04:27:09.850Z,9.70
2019-03-22T04:29:35.899Z,9.80
2019-03-22T04:32:02.068Z,9.80
2019-03-22T04:34:28.152Z,9.70
2019-03-22T04:36:54.197Z,9.70
2019-03-22T04:39:20.273Z,9.70
2019-03-22T04:41:46.438Z,9.70
2019-03-22T04:44:12.511Z,9.70
2019-03-22T04:46:40.406Z,9.70
2019-03-22T04:49:07.035Z,9.80
2019-03-22T04:51:33.396Z,9.70
2019-03-22T04:54:01.659Z,9.70
2019-03-22T04:56:30.422Z,9.70
2019-03-22T04:58:56.788Z,9.70
2019-03-22T05:01:23.759Z,9.70
2019-03-22T05:03:51.030Z,9.70
2019-03-22T05:06:18.698Z,9.70
2019-03-22T05:08:45.888Z,9.70
2019-03-22T05:11:13.751Z,9.70
2019-03-22T05:13:43.331Z,9.80
2019-03-22T05:16:11.648Z,9.80
2019-03-22T05:18:39.017Z,9.80
2019-03-22T05:21:07.392Z,9.70
2019-03-22T05:23:33.675Z,9.70
2019-03-22T05:26:00.831Z,9.70
2019-03-22T05:28:28.107Z,9.70
2019-03-22T05:31:09.832Z,9.70
2019-03-22T05:33:35.962Z,9.70
2019-03-22T05:36:02.009Z,9.80
2019-03-22T05:38:28.060Z,9.80
2019-03-22T05:40:54.115Z,9.80
2019-03-22T05:43:20.170Z,9.80
2019-03-22T05:45:46.322Z,9.80
2019-03-22T05:48:12.389Z,9.80
2019-03-22T05:50:38.540Z,9.80
2019-03-22T05:53:04.603Z,9.70
2019-03-22T05:55:30.658Z,9.70
2019-03-22T05:57:56.716Z,9.70
2019-03-22T06:00:22.775Z,9.60
2019-03-22T06:02:48.840Z,9.60
2019-03-22T06:05:14.923Z,9.60
2019-03-22T06:07:40.975Z,9.70
2019-03-22T06:10:07.243Z,9.70
2019-03-22T06:12:33.302Z,9.80
2019-03-22T06:14:59.359Z,9.80
2019-03-22T06:17:25.439Z,9.80
2019-03-22T06:19:51.504Z,9.80
2019-03-22T06:22:17.635Z,10.00
2019-03-22T06:24:43.824Z,10.00
2019-03-22T06:27:09.891Z,10.10
2019-03-22T06:29:35.984Z,10.10
2019-03-22T06:32:02.040Z,10.20
2019-03-22T06:34:28.088Z,10.20
2019-03-22T06:36:54.169Z,10.20
2019-03-22T06:39:20.376Z,10.20
2019-03-22T06:41:46.478Z,10.20
2019-03-22T06:44:12.657Z,10.20
2019-03-22T06:46:38.783Z,10.20
2019-03-22T06:49:04.888Z,10.20
2019-03-22T06:51:30.967Z,10.20
2019-03-22T06:53:57.021Z,10.10
2019-03-22T06:56:23.085Z,10.00
2019-03-22T06:58:49.135Z,9.90
2019-03-22T07:01:15.227Z,9.80
2019-03-22T07:03:41.481Z,9.70
2019-03-22T07:06:07.567Z,9.70
2019-03-22T07:08:33.622Z,11.00
2019-03-22T07:10:59.695Z,9.70
2019-03-22T07:13:25.745Z,9.60
2019-03-22T07:15:51.792Z,9.70
2019-03-22T07:18:17.890Z,9.60
2019-03-22T07:20:43.936Z,9.70
2019-03-22T07:23:09.983Z,9.80
2019-03-22T07:25:36.056Z,9.90
2019-03-22T07:28:02.120Z,10.10
2019-03-22T07:30:28.268Z,10.10
2019-03-22T07:32:54.351Z,10.20
2019-03-22T07:35:20.504Z,10.20
2019-03-22T07:37:46.558Z,10.30
2019-03-22T07:40:12.819Z,10.30
2019-03-22T07:42:38.895Z,10.40
2019-03-22T07:45:06.443Z,10.40
2019-03-22T07:47:32.591Z,10.50
2019-03-22T07:49:58.659Z,10.60
2019-03-22T07:52:24.768Z,10.60
2019-03-22T07:54:50.836Z,10.60
2019-03-22T07:57:17.056Z,10.70
2019-03-22T07:59:43.115Z,10.70
2019-03-22T08:02:09.272Z,10.70
2019-03-22T08:04:35.380Z,10.70
2019-03-22T08:07:01.499Z,10.80
2019-03-22T08:09:27.684Z,10.80
2019-03-22T08:11:53.871Z,10.90
2019-03-22T08:14:20.039Z,10.90
2019-03-22T08:16:46.216Z,10.90
2019-03-22T08:19:12.605Z,11.00
2019-03-22T08:21:38.784Z,11.10
2019-03-22T08:24:04.864Z,11.10
2019-03-22T08:26:30.912Z,11.10
2019-03-22T08:28:57.019Z,11.20
2019-03-22T08:31:23.167Z,11.30
2019-03-22T08:33:49.369Z,11.40
2019-03-22T08:36:15.471Z,11.50
2019-03-22T08:38:41.686Z,11.60
2019-03-22T08:41:07.921Z,11.70
2019-03-22T08:43:34.087Z,11.80
2019-03-22T08:46:00.196Z,11.90
2019-03-22T08:48:26.296Z,11.90
2019-03-22T08:50:52.460Z,12.00
2019-03-22T08:53:18.552Z,12.00
2019-03-22T08:55:44.708Z,12.00
2019-03-22T08:58:10.950Z,12.10
2019-03-22T09:00:39.638Z,12.20
2019-03-22T09:03:05.145Z,12.20
2019-03-22T09:05:31.907Z,12.30
2019-03-22T09:07:58.022Z,12.30
2019-03-22T09:10:24.144Z,12.40
2019-03-22T09:12:50.317Z,12.50
2019-03-22T09:15:16.384Z,12.60
2019-03-22T09:17:42.461Z,12.70
2019-03-22T09:20:09.523Z,12.80
2019-03-22T09:22:35.664Z,12.90
2019-03-22T09:25:02.484Z,13.00
2019-03-22T09:27:28.580Z,13.10
2019-03-22T09:29:54.675Z,13.10
2019-03-22T09:32:20.871Z,13.20
2019-03-22T09:34:46.991Z,13.20
2019-03-22T09:37:13.080Z,13.30
2019-03-22T09:39:39.254Z,13.30
2019-03-22T09:42:05.410Z,13.30
2019-03-22T09:44:42.854Z,13.30
2019-03-22T09:46:59.527Z,13.30
2019-03-22T09:49:25.751Z,13.30
2019-03-22T09:51:53.998Z,13.30
2019-03-22T09:54:19.892Z,13.40
2019-03-22T09:56:47.237Z,13.40
2019-03-22T09:59:13.775Z,13.50
2019-03-22T10:01:39.823Z,13.50
2019-03-22T10:04:05.880Z,13.60
2019-03-22T10:06:31.936Z,13.60
2019-03-22T10:08:57.995Z,13.60
2019-03-22T10:11:24.043Z,13.70
2019-03-22T10:13:50.108Z,13.80
2019-03-22T10:16:16.169Z,13.80
2019-03-22T10:18:42.264Z,14.00
2019-03-22T10:21:21.501Z,14.10
2019-03-22T10:23:36.344Z,14.10
2019-03-22T10:26:02.610Z,14.10
2019-03-22T10:28:28.771Z,14.10
2019-03-22T10:30:54.926Z,14.00
2019-03-22T10:33:23.026Z,14.10
2019-03-22T10:35:48.996Z,14.10
2019-03-22T10:38:16.282Z,14.10
2019-03-22T10:40:42.995Z,14.10
2019-03-22T10:43:09.083Z,14.20
2019-03-22T10:45:35.238Z,14.30
2019-03-22T10:48:01.403Z,14.30
2019-03-22T10:50:27.528Z,14.40
2019-03-22T10:52:53.680Z,14.40
2019-03-22T10:55:29.809Z,14.50
2019-03-22T11:00:16.257Z,14.80
2019-03-22T11:02:42.424Z,14.90
2019-03-22T11:05:08.804Z,14.90
2019-03-22T11:07:34.967Z,14.90
2019-03-22T11:10:01.028Z,15.00
2019-03-22T11:12:27.170Z,15.20
2019-03-22T11:14:53.295Z,15.30
2019-03-22T11:17:19.348Z,15.40
2019-03-22T11:19:45.415Z,15.50
2019-03-22T11:22:11.472Z,15.60
2019-03-22T11:24:37.596Z,15.70
2019-03-22T11:27:04.764Z,15.80
2019-03-22T11:29:30.821Z,15.90
2019-03-22T11:31:56.881Z,15.90
2019-03-22T11:34:22.934Z,16.00
2019-03-22T11:36:49.027Z,16.10
2019-03-22T11:39:16.022Z,16.10
2019-03-22T11:41:42.267Z,16.30
2019-03-22T11:44:08.528Z,16.30
2019-03-22T11:46:34.583Z,16.40
2019-03-22T11:49:00.663Z,16.40
2019-03-22T11:51:26.724Z,16.40
2019-03-22T11:53:52.784Z,16.50
2019-03-22T11:56:18.841Z,16.40
2019-03-22T11:58:44.932Z,16.40
2019-03-22T12:01:19.459Z,16.20
2019-03-22T12:03:38.951Z,16.10
2019-03-22T12:06:04.999Z,16.00
2019-03-22T12:08:31.302Z,15.90
2019-03-22T12:10:57.359Z,15.90
2019-03-22T12:13:23.438Z,15.80
2019-03-22T12:15:49.677Z,15.70
2019-03-22T12:18:15.727Z,15.50
2019-03-22T12:20:41.780Z,15.40
2019-03-22T12:23:07.939Z,15.30
2019-03-22T12:25:33.992Z,15.20
2019-03-22T12:28:00.068Z,15.10
2019-03-22T12:30:26.125Z,15.00
2019-03-22T12:32:52.202Z,14.90
2019-03-22T12:35:18.548Z,14.80
2019-03-22T12:37:44.619Z,14.80
2019-03-22T12:40:20.994Z,14.70
2019-03-22T12:42:47.468Z,14.70
2019-03-22T12:45:22.794Z,14.80
2019-03-22T12:47:48.868Z,14.80
2019-03-22T12:50:15.443Z,14.80
2019-03-22T12:52:41.541Z,14.90
2019-03-22T12:55:09.637Z,14.90
2019-03-22T12:57:35.720Z,14.90
2019-03-22T13:00:04.769Z,14.90
2019-03-22T13:02:30.835Z,15.00
2019-03-22T13:04:56.898Z,14.90
2019-03-22T13:07:22.964Z,15.00
2019-03-22T13:09:53.148Z,15.00
2019-03-22T13:12:19.208Z,15.00
2019-03-22T13:14:45.268Z,15.00
2019-03-22T13:17:11.331Z,15.10
2019-03-22T13:19:37.415Z,15.20
2019-03-22T13:22:03.477Z,15.20
2019-03-22T13:24:29.539Z,15.20
2019-03-22T13:26:55.663Z,15.30
2019-03-22T13:29:21.916Z,15.40
2019-03-22T13:31:47.969Z,15.40
2019-03-22T13:34:14.019Z,15.40
2019-03-22T13:36:40.130Z,15.50
2019-03-22T13:39:06.787Z,15.60
2019-03-22T13:41:32.863Z,15.60
2019-03-22T13:43:58.919Z,15.70
2019-03-22T13:46:24.971Z,15.70
2019-03-22T13:48:51.073Z,15.80
2019-03-22T13:51:17.129Z,15.80
2019-03-22T13:53:43.299Z,15.90
2019-03-22T13:56:09.460Z,15.90
2019-03-22T13:58:35.531Z,15.90
2019-03-22T14:01:01.596Z,15.90
2019-03-22T14:03:27.647Z,16.00
2019-03-22T14:05:56.735Z,16.00
2019-03-22T14:08:22.888Z,16.10
2019-03-22T14:10:49.008Z,16.10
2019-03-22T14:13:15.070Z,16.10
2019-03-22T14:15:41.129Z,16.10
2019-03-22T14:18:07.198Z,16.20
2019-03-22T14:20:33.412Z,16.20
2019-03-22T14:22:59.483Z,16.20
2019-03-22T14:25:25.531Z,16.20
2019-03-22T14:27:52.303Z,16.20
2019-03-22T14:30:18.362Z,16.30
2019-03-22T14:32:44.431Z,16.30
2019-03-22T14:35:10.487Z,16.40
2019-03-22T14:37:36.539Z,16.50
2019-03-22T14:40:04.826Z,16.50
2019-03-22T14:42:30.908Z,16.50
2019-03-22T14:44:57.041Z,16.60
2019-03-22T14:47:23.105Z,16.60
2019-03-22T14:49:49.179Z,16.60
2019-03-22T14:52:15.244Z,16.60
2019-03-22T14:54:41.404Z,16.60
2019-03-22T14:57:07.531Z,16.60
2019-03-22T14:59:33.622Z,16.70
2019-03-22T15:01:59.776Z,16.70
2019-03-22T15:04:25.917Z,16.70
2019-03-22T15:06:52.067Z,16.70
2019-03-22T15:09:18.122Z,16.70
2019-03-22T15:11:44.203Z,16.70
2019-03-22T15:14:20.891Z,16.70
2019-03-22T15:16:48.855Z,16.70
2019-03-22T15:19:16.811Z,16.70
2019-03-22T15:21:44.774Z,16.70
2019-03-22T15:24:15.575Z,16.70
2019-03-22T15:26:43.671Z,16.70
2019-03-22T15:31:46.191Z,16.70
2019-03-22T15:34:26.002Z,16.70
2019-03-22T15:36:56.510Z,16.60
2019-03-22T15:39:24.827Z,16.60
2019-03-22T15:41:51.231Z,16.60
2019-03-22T15:44:17.351Z,16.60
2019-03-22T15:46:43.584Z,16.50
2019-03-22T15:49:09.688Z,16.50
2019-03-22T15:51:35.855Z,16.50
2019-03-22T15:54:01.925Z,16.50
2019-03-22T15:56:28.151Z,16.50
2019-03-22T15:58:54.220Z,16.40
2019-03-22T16:01:20.276Z,16.40
2019-03-22T16:03:46.343Z,16.40
2019-03-22T16:06:12.501Z,16.40
2019-03-22T16:08:38.603Z,16.30
2019-03-22T16:11:04.650Z,16.20
2019-03-22T16:13:30.719Z,16.20
2019-03-22T16:15:56.879Z,16.20
2019-03-22T16:18:22.950Z,16.10
2019-03-22T16:20:56.085Z,16.10
2019-03-22T16:23:17.091Z,16.00
2019-03-22T16:25:43.175Z,16.00
2019-03-22T16:28:09.315Z,15.90
2019-03-22T16:30:35.427Z,15.80
2019-03-22T16:33:01.548Z,15.80
2019-03-22T16:35:27.632Z,15.80
2019-03-22T16:37:53.687Z,15.70
2019-03-22T16:40:24.038Z,15.70
2019-03-22T16:42:47.715Z,15.60
2019-03-22T16:45:29.911Z,15.60
2019-03-22T16:47:55.970Z,15.50
2019-03-22T16:50:23.358Z,15.40
2019-03-22T16:52:49.407Z,15.30
2019-03-22T16:55:15.475Z,15.30
2019-03-22T16:57:41.544Z,15.20
2019-03-22T17:00:09.128Z,15.20
2019-03-22T17:02:35.555Z,15.10
2019-03-22T17:05:01.611Z,15.00
2019-03-22T17:07:27.675Z,14.90
2019-03-22T17:09:53.744Z,14.90
2019-03-22T17:12:19.799Z,14.80
2019-03-22T17:14:45.872Z,14.70
2019-03-22T17:17:12.067Z,14.70
2019-03-22T17:19:38.123Z,14.60
2019-03-22T17:22:04.191Z,14.50
2019-03-22T17:24:30.238Z,14.40
2019-03-22T17:26:56.291Z,14.40
2019-03-22T17:29:22.375Z,14.30
2019-03-22T17:31:48.436Z,14.20
2019-03-22T17:34:14.699Z,14.20
2019-03-22T17:36:40.999Z,14.10
2019-03-22T17:39:07.144Z,14.00
2019-03-22T17:41:33.203Z,13.90
2019-03-22T17:43:59.275Z,13.80
2019-03-22T17:46:25.328Z,13.80
2019-03-22T17:48:51.379Z,13.70
2019-03-22T17:51:17.471Z,13.60
2019-03-22T17:53:43.523Z,13.50
2019-03-22T17:56:09.583Z,13.40
2019-03-22T17:58:35.727Z,13.30
2019-03-22T18:01:01.890Z,13.20
2019-03-22T18:03:27.954Z,13.20
2019-03-22T18:05:54.023Z,13.10
2019-03-22T18:08:20.080Z,13.00
2019-03-22T18:10:46.160Z,12.90
2019-03-22T18:13:12.255Z,12.90
2019-03-22T18:15:38.471Z,12.80
2019-03-22T18:18:04.559Z,12.70
2019-03-22T18:20:30.620Z,12.60
2019-03-22T18:22:56.673Z,12.50
2019-03-22T18:25:22.828Z,12.40
2019-03-22T18:27:48.880Z,12.40
2019-03-22T18:30:15.271Z,12.40
2019-03-22T18:32:41.439Z,12.30
2019-03-22T18:35:08.333Z,12.30
2019-03-22T18:37:34.714Z,12.20
2019-03-22T18:40:00.864Z,12.20
2019-03-22T18:42:43.203Z,12.20
2019-03-22T18:45:11.249Z,12.30
2019-03-22T18:47:41.332Z,10.10
2019-03-22T18:50:17.287Z,12.70
2019-03-22T18:52:43.723Z,12.10
2019-03-22T18:55:13.302Z,12.20
2019-03-22T18:57:39.885Z,12.30
2019-03-22T19:00:09.420Z,12.10
2019-03-22T19:02:35.471Z,12.00
2019-03-22T19:05:02.392Z,12.00
2019-03-22T19:07:28.454Z,12.00
2019-03-22T19:09:54.615Z,12.00
2019-03-22T19:12:20.668Z,11.90
2019-03-22T19:14:46.759Z,11.90
2019-03-22T19:17:12.821Z,11.90
2019-03-22T19:19:38.876Z,11.90
2019-03-22T19:22:05.034Z,11.90
2019-03-22T19:24:31.092Z,11.90
2019-03-22T19:26:57.155Z,11.90
2019-03-22T19:29:23.260Z,11.90
2019-03-22T19:31:49.340Z,11.90
2019-03-22T19:34:15.486Z,11.90
2019-03-22T19:36:41.541Z,11.80
2019-03-22T19:39:07.596Z,11.90
2019-03-22T19:41:34.155Z,11.80
2019-03-22T19:44:00.273Z,11.80
2019-03-22T19:46:26.331Z,11.80
2019-03-22T19:48:52.445Z,11.80
2019-03-22T19:51:18.527Z,11.80
2019-03-22T19:53:44.604Z,11.80
2019-03-22T19:56:10.759Z,11.80
2019-03-22T19:58:36.806Z,11.80
2019-03-22T20:01:02.907Z,11.80
2019-03-22T20:03:29.044Z,11.80
2019-03-22T20:05:55.216Z,11.70
2019-03-22T20:08:21.264Z,11.70
2019-03-22T20:10:47.327Z,11.70
2019-03-22T20:13:13.572Z,11.60
2019-03-22T20:15:39.615Z,11.60
2019-03-22T20:18:05.692Z,11.60
2019-03-22T20:20:31.763Z,11.50
2019-03-22T20:22:58.027Z,11.50
2019-03-22T20:25:24.121Z,11.50
2019-03-22T20:27:50.267Z,11.50
2019-03-22T20:30:18.235Z,11.50
2019-03-22T20:32:44.490Z,11.40
2019-03-22T20:35:16.424Z,11.40
2019-03-22T20:37:38.733Z,11.40
2019-03-22T20:40:15.613Z,11.30
2019-03-22T20:42:41.737Z,11.30
2019-03-22T20:45:08.090Z,11.30
2019-03-22T20:47:34.158Z,11.20
2019-03-22T20:50:00.348Z,11.20
2019-03-22T20:52:26.506Z,11.20
2019-03-22T20:54:52.606Z,11.10
2019-03-22T20:57:18.691Z,11.10
2019-03-22T20:59:44.741Z,11.10
2019-03-22T21:02:15.311Z,11.10
2019-03-22T21:04:45.894Z,11.10
2019-03-22T21:07:14.330Z,11.00
2019-03-22T21:09:45.405Z,11.00
2019-03-22T21:12:14.430Z,10.90
2019-03-22T21:14:41.213Z,10.90
2019-03-22T21:17:12.278Z,10.90
2019-03-22T21:19:43.065Z,10.80
2019-03-22T21:22:09.652Z,11.00
2019-03-22T21:24:36.202Z,10.70
2019-03-22T21:27:14.835Z,10.70
2019-03-22T21:29:43.485Z,10.80
2019-03-22T21:32:01.076Z,10.70
2019-03-22T21:34:27.140Z,10.60
2019-03-22T21:36:53.231Z,10.50
2019-03-22T21:39:19.406Z,10.50
2019-03-22T21:41:45.500Z,10.40
2019-03-22T21:44:11.543Z,10.50
2019-03-22T21:46:37.600Z,10.40
2019-03-22T21:49:03.651Z,10.40
2019-03-22T21:51:29.733Z,10.40
2019-03-22T21:53:55.896Z,10.30
2019-03-22T21:56:21.963Z,10.30
2019-03-22T21:58:48.011Z,10.30
2019-03-22T22:01:14.095Z,10.30
2019-03-22T22:03:40.259Z,10.30
2019-03-22T22:06:06.321Z,10.20
2019-03-22T22:08:32.384Z,10.20
2019-03-22T22:11:00.009Z,10.10
2019-03-22T22:13:26.425Z,9.60
2019-03-22T22:15:52.587Z,10.10
2019-03-22T22:18:18.634Z,10.10
2019-03-22T22:20:44.708Z,10.00
2019-03-22T22:23:10.783Z,10.00
2019-03-22T22:25:36.962Z,10.00
2019-03-22T22:28:03.044Z,9.90
2019-03-22T22:30:29.087Z,9.90
2019-03-22T22:32:55.173Z,9.90
2019-03-22T22:35:21.215Z,9.80
2019-03-22T22:37:47.299Z,9.80
2019-03-22T22:40:13.467Z,9.80
2019-03-22T22:42:39.519Z,9.80
2019-03-22T22:45:07.083Z,9.80
2019-03-22T22:47:33.123Z,9.70
2019-03-22T22:49:59.271Z,9.70
2019-03-22T22:52:25.333Z,9.70
2019-03-22T22:54:51.403Z,9.70
2019-03-22T22:57:17.459Z,9.60
2019-03-22T22:59:43.519Z,9.70
2019-03-22T23:02:09.580Z,9.60
2019-03-22T23:04:35.640Z,9.60
2019-03-22T23:07:01.687Z,9.70
2019-03-22T23:09:27.920Z,9.60
2019-03-22T23:11:54.075Z,9.60
2019-03-22T23:14:20.125Z,9.60
2019-03-22T23:16:46.187Z,9.60
2019-03-22T23:19:12.250Z,9.60
2019-03-22T23:21:38.310Z,9.60
2019-03-22T23:24:04.384Z,9.50
2019-03-22T23:26:30.464Z,9.50
2019-03-22T23:28:56.524Z,9.50
2019-03-22T23:31:22.608Z,9.50
2019-03-22T23:33:48.654Z,9.50
2019-03-22T23:36:20.203Z,9.50
2019-03-22T23:38:42.696Z,9.50
2019-03-22T23:41:08.763Z,9.40
2019-03-22T23:43:34.823Z,9.50
2019-03-22T23:46:00.895Z,9.50
2019-03-22T23:48:26.980Z,9.40
2019-03-22T23:50:53.055Z,9.50
2019-03-22T23:53:19.186Z,9.40
2019-03-22T23:55:45.358Z,9.40
2019-03-22T23:58:11.713Z,9.40
